Portada
METAR-TAF:

METAR-TAF

Aeroports :

Base aèria

Tafraoui, Algèria

latitud: 35-32-33N, longitud: 000-31-56W, altitud: 112 m

Observació

L'informe es va fer fa 1 hora i 17 minuts, a les 09:00 UTC
Vent 16 kt del Oest/Sud-Oest
Temperatura 21°C
Humitat 60%
Pressió 1015 hPa
Visibilitat 10 km o més
Cel ennuvolat a una alçada de 3000 ft

METAR: DAOL 150900Z 24016KT 9999 BKN030 21/13 Q1015

Hora: 11:17 (10:17 UTC)


TAF: manca

Observacions i pronòstics meteorològics de més de 4000 aeroports (METAR i TAF).

Les estacions disponibles són els punts grocs i vermells al mapa.

Posi el ratolí al punt desitjat per veure el nom de l'estació.

Feu clic per veure les observacions i els pronòstics meteorològics.

Per canviar el mapa: feu clic els botons verds amb una creu de color negre per apropar; al botó verd amb un guió per allunyar la imatge; o en les fletxes verdes per a mapes adjacents.


METAR-TAF: